Aérodrome :
LOGIN :

S'inscrire | Disclaimer

   EN    FR    IT 

 










Légende :    VFR   VFR Marginal   IFR   IFR Intensif   IFR Très Intensif
Visi : 
Plafond : 
>= 8 km
>= 3000ft
5 à 8 km
1000 à 3000 ft
1500m à 5 km
500 à 1000 ft
800 à 1500m
200 à 500 ft
< 800m
< 200 ft
Symboles :   Orages  Brouillard  Fortes neiges  Fortes précipitations  Vent > 20 kt
SIGMETs :   Divers  Orages  Givrage  Turbulence  Onde Orograph.  Cendres Volcan.






- Altitude de l'aérodrome : 36 ft
- Code IATA : RIX


EVRA - Riga

DERNIER METAR :
  • 300720Z VRB03KT 9999 SCT032 02/M07 Q1020 R18/190095 NOSIG

METARs EXPIRÉS :
  • 300650Z VRB02KT 9999 FEW040 00/M07 Q1020 R18/510195 NOSIG
  • 300620Z VRB02KT 9999 FEW038 M00/M06 Q1020 R18/510195 NOSIG
  • 300550Z 21003KT 9999 FEW035 M01/M06 Q1020 R18/510195 NOSIG
  • 300520Z 18003KT 9999 FEW035 M03/M06 Q1020 R18/510195 NOSIG
  • 300450Z 00000KT 9999 SCT040 M05/M07 Q1020 R18/510195 NOSIG

TAF TAF EVRA
Valide du 30 à 06h jusqu'au 31 à 06h UTC


300500Z 3006/3106 18005KT 9999 BKN030
TEMPO 3006/3014 SCT020CB
TEMPO 3014/3023 3000 -SHSNRA BKN010 SCT015CB
BECMG 3021/3023 07007KT



MET'MAP, la Météo Aéronautique d'un coup d'oeil ! - Copyright ORBIFLY Décembre 2007 - Disclaimer

ORBIFLY MET'MAP TEAM :

Programmation & Développement : Alexandra Zaïnal
Sur une idée originale de : Baudouin d'Aumeries
Assistance à la programmation : Marc-Olivier Méhu
Soutien technique & logistique : Manuel Goepfert

Contact : metmap@orbifly.com




SOURCES & CREDITS :

   NOAA